createdAt,value
2018-06-23T00:00:42.891Z,14.40
2018-06-23T00:05:41.514Z,14.30
2018-06-23T00:08:11.164Z,14.30
2018-06-23T00:10:40.544Z,14.30
2018-06-23T00:13:09.975Z,14.30
2018-06-23T00:15:39.438Z,14.30
2018-06-23T00:18:08.930Z,14.30
2018-06-23T00:20:38.494Z,14.20
2018-06-23T00:23:07.956Z,14.30
2018-06-23T00:25:42.750Z,14.30
2018-06-23T00:28:12.124Z,14.20
2018-06-23T00:30:43.322Z,14.20
2018-06-23T00:33:12.744Z,14.20
2018-06-23T00:35:42.891Z,14.20
2018-06-23T00:38:12.383Z,14.20
2018-06-23T00:40:41.722Z,14.20
2018-06-23T00:43:11.134Z,14.20
2018-06-23T00:45:40.682Z,14.10
2018-06-23T00:48:10.222Z,14.10
2018-06-23T00:50:39.606Z,14.10
2018-06-23T00:53:09.014Z,14.10
2018-06-23T00:55:38.381Z,14.10
2018-06-23T00:58:07.743Z,14.00
2018-06-23T01:00:37.238Z,14.00
2018-06-23T01:03:07.610Z,14.00
2018-06-23T01:05:37.039Z,14.00
2018-06-23T01:08:06.564Z,14.00
2018-06-23T01:10:36.206Z,14.00
2018-06-23T01:13:05.666Z,13.90
2018-06-23T01:15:35.128Z,14.00
2018-06-23T01:18:04.623Z,13.90
2018-06-23T01:20:34.186Z,13.90
2018-06-23T01:23:03.646Z,13.90
2018-06-23T01:25:33.006Z,13.90
2018-06-23T01:28:02.503Z,13.90
2018-06-23T01:30:32.203Z,13.80
2018-06-23T01:33:02.701Z,13.80
2018-06-23T01:35:32.186Z,13.70
2018-06-23T01:38:01.823Z,13.70
2018-06-23T01:40:31.325Z,13.60
2018-06-23T01:43:00.830Z,13.60
2018-06-23T01:45:30.316Z,13.60
2018-06-23T01:47:59.885Z,13.50
2018-06-23T01:50:29.290Z,13.50
2018-06-23T01:52:58.834Z,13.50
2018-06-23T01:57:57.438Z,13.40
2018-06-23T02:00:27.099Z,13.40
2018-06-23T02:02:56.660Z,13.40
2018-06-23T02:05:26.008Z,13.40
2018-06-23T02:07:55.346Z,13.40
2018-06-23T02:10:24.850Z,13.30
2018-06-23T02:12:54.371Z,13.30
2018-06-23T02:15:29.031Z,13.30
2018-06-23T02:20:38.394Z,13.30
2018-06-23T02:24:11.607Z,13.20
2018-06-23T02:26:47.890Z,13.20
2018-06-23T02:29:22.595Z,13.20
2018-06-23T02:31:57.330Z,13.10
2018-06-23T02:34:32.187Z,13.10
2018-06-23T02:37:01.723Z,13.10
2018-06-23T02:39:31.254Z,13.00
2018-06-23T02:42:00.759Z,12.90
2018-06-23T02:44:30.179Z,12.90
2018-06-23T02:46:59.715Z,12.90
2018-06-23T02:49:29.133Z,12.80
2018-06-23T02:51:58.626Z,12.80
2018-06-23T02:54:28.135Z,12.70
2018-06-23T02:56:57.583Z,12.70
2018-06-23T02:59:27.002Z,12.70
2018-06-23T03:01:56.411Z,12.70
2018-06-23T03:04:25.915Z,12.60
2018-06-23T03:06:55.400Z,12.60
2018-06-23T03:09:24.783Z,12.50
2018-06-23T03:11:54.270Z,12.50
2018-06-23T03:14:23.695Z,12.50
2018-06-23T03:16:53.241Z,12.40
2018-06-23T03:19:22.682Z,12.40
2018-06-23T03:21:52.234Z,12.40
2018-06-23T03:24:22.454Z,12.40
2018-06-23T03:26:51.831Z,12.30
2018-06-23T03:29:21.302Z,12.30
2018-06-23T03:31:50.706Z,12.30
2018-06-23T03:34:20.030Z,12.30
2018-06-23T03:36:49.666Z,12.30
2018-06-23T03:39:19.022Z,12.30
2018-06-23T03:41:48.350Z,12.30
2018-06-23T03:44:17.701Z,12.40
2018-06-23T03:46:47.195Z,12.40
2018-06-23T03:49:16.766Z,12.40
2018-06-23T03:51:46.114Z,12.40
2018-06-23T03:54:15.631Z,12.50
2018-06-23T03:56:45.090Z,12.50
2018-06-23T03:59:15.214Z,12.50
2018-06-23T04:01:44.811Z,12.60
2018-06-23T04:06:44.183Z,12.70
2018-06-23T04:09:13.642Z,12.70
2018-06-23T04:11:43.208Z,12.80
2018-06-23T04:14:12.634Z,12.90
2018-06-23T04:16:42.020Z,13.00
2018-06-23T04:19:12.639Z,13.10
2018-06-23T04:21:42.162Z,13.20
2018-06-23T04:24:11.543Z,13.30
2018-06-23T04:26:40.934Z,13.40
2018-06-23T04:29:10.389Z,13.50
2018-06-23T04:31:39.903Z,13.60
2018-06-23T04:34:09.415Z,13.70
2018-06-23T04:36:38.802Z,13.80
2018-06-23T04:39:08.526Z,13.90
2018-06-23T04:41:38.226Z,14.00
2018-06-23T04:44:07.740Z,14.00
2018-06-23T04:46:37.366Z,14.10
2018-06-23T04:49:06.892Z,14.20
2018-06-23T04:51:36.375Z,14.30
2018-06-23T04:54:05.860Z,14.30
2018-06-23T04:56:35.211Z,14.30
2018-06-23T04:59:04.592Z,14.40
2018-06-23T05:01:34.500Z,14.50
2018-06-23T05:04:04.013Z,14.50
2018-06-23T05:06:33.517Z,14.60
2018-06-23T05:09:03.239Z,14.60
2018-06-23T05:11:32.678Z,14.70
2018-06-23T05:14:02.289Z,14.70
2018-06-23T05:16:31.840Z,14.80
2018-06-23T05:19:09.153Z,14.80
2018-06-23T05:21:38.495Z,14.80
2018-06-23T05:24:09.582Z,14.80
2018-06-23T05:26:39.108Z,14.90
2018-06-23T05:29:08.474Z,15.00
2018-06-23T05:31:37.849Z,15.00
2018-06-23T05:34:07.211Z,15.10
2018-06-23T05:36:36.726Z,15.20
2018-06-23T05:39:08.110Z,15.20
2018-06-23T05:41:37.518Z,15.20
2018-06-23T05:44:08.082Z,15.30
2018-06-23T05:46:37.598Z,15.40
2018-06-23T05:51:35.962Z,15.50
2018-06-23T05:54:05.579Z,15.50
2018-06-23T05:56:35.142Z,15.50
2018-06-23T05:59:04.564Z,15.60
2018-06-23T06:01:34.028Z,15.70
2018-06-23T06:04:03.407Z,15.80
2018-06-23T06:06:32.825Z,15.90
2018-06-23T06:09:02.281Z,15.90
2018-06-23T06:11:31.957Z,16.00
2018-06-23T06:14:03.782Z,16.00
2018-06-23T06:17:41.243Z,16.00
2018-06-23T06:20:12.342Z,16.10
2018-06-23T06:22:45.951Z,16.30
2018-06-23T06:25:16.259Z,16.30
2018-06-23T06:27:45.732Z,16.40
2018-06-23T06:30:15.483Z,16.50
2018-06-23T06:32:44.846Z,16.50
2018-06-23T06:53:51.238Z,16.70
2018-06-23T06:56:20.847Z,17.30
2018-06-23T06:58:50.190Z,17.50
2018-06-23T07:01:19.546Z,17.80
2018-06-23T07:03:48.922Z,18.40
2018-06-23T07:06:18.296Z,18.90
2018-06-23T07:08:47.716Z,19.50
2018-06-23T07:11:17.090Z,20.00
2018-06-23T07:13:46.462Z,20.40
2018-06-23T07:16:16.035Z,20.90
2018-06-23T07:18:45.498Z,21.40
2018-06-23T07:21:15.691Z,21.90
2018-06-23T07:23:45.174Z,22.40
2018-06-23T07:26:15.603Z,22.70
2018-06-23T07:28:44.958Z,23.20
2018-06-23T07:31:14.280Z,23.50
2018-06-23T07:33:43.855Z,23.90
2018-06-23T07:36:13.395Z,24.30
2018-06-23T07:38:42.760Z,24.50
2018-06-23T07:41:12.362Z,24.90
2018-06-23T07:43:41.818Z,25.20
2018-06-23T07:46:11.435Z,25.40
2018-06-23T07:48:40.960Z,25.70
2018-06-23T07:51:10.374Z,25.80
2018-06-23T07:53:39.960Z,26.10
2018-06-23T07:58:39.182Z,26.40
2018-06-23T08:01:08.590Z,26.50
2018-06-23T08:03:38.518Z,26.50
2018-06-23T08:06:08.170Z,26.50
2018-06-23T08:08:38.569Z,26.30
2018-06-23T08:11:08.055Z,26.10
2018-06-23T08:13:37.721Z,26.00
2018-06-23T08:16:07.527Z,25.70
2018-06-23T08:18:37.043Z,25.40
2018-06-23T08:21:06.646Z,25.10
2018-06-23T08:23:36.098Z,24.90
2018-06-23T08:26:05.909Z,24.60
2018-06-23T08:28:35.923Z,24.40
2018-06-23T08:31:05.910Z,24.10
2018-06-23T08:33:36.153Z,23.90
2018-06-23T08:36:06.627Z,23.70
2018-06-23T08:38:36.034Z,23.50
2018-06-23T08:41:05.694Z,23.20
2018-06-23T08:43:35.286Z,22.90
2018-06-23T08:46:04.963Z,22.80
2018-06-23T08:48:34.528Z,22.60
2018-06-23T08:51:04.033Z,22.60
2018-06-23T08:53:33.447Z,22.50
2018-06-23T08:56:03.096Z,22.50
2018-06-23T08:58:32.695Z,22.50
2018-06-23T09:01:02.147Z,22.40
2018-06-23T09:03:31.654Z,22.40
2018-06-23T09:06:01.135Z,22.40
2018-06-23T09:08:30.658Z,22.30
2018-06-23T09:11:00.234Z,22.30
2018-06-23T09:15:59.866Z,22.30
2018-06-23T09:18:29.377Z,22.40
2018-06-23T09:20:58.886Z,22.30
2018-06-23T09:23:28.392Z,22.30
2018-06-23T09:25:58.875Z,22.20
2018-06-23T09:28:28.378Z,22.20
2018-06-23T09:30:57.755Z,22.30
2018-06-23T09:33:27.326Z,22.20
2018-06-23T09:35:56.834Z,22.30
2018-06-23T09:38:26.317Z,22.30
2018-06-23T09:40:55.959Z,22.30
2018-06-23T09:43:25.377Z,22.30
2018-06-23T09:45:54.980Z,22.40
2018-06-23T09:48:24.544Z,22.50
2018-06-23T09:50:54.104Z,22.50
2018-06-23T09:53:23.653Z,22.50
2018-06-23T09:55:53.236Z,22.50
2018-06-23T09:58:22.783Z,22.60
2018-06-23T10:00:52.255Z,22.60
2018-06-23T10:03:21.841Z,22.60
2018-06-23T10:05:51.310Z,22.60
2018-06-23T10:08:20.723Z,22.70
2018-06-23T10:10:50.215Z,22.80
2018-06-23T10:13:19.575Z,22.80
2018-06-23T10:15:49.023Z,22.90
2018-06-23T10:18:18.535Z,22.90
2018-06-23T10:20:47.982Z,22.80
2018-06-23T10:23:17.491Z,22.80
2018-06-23T10:25:47.062Z,22.80
2018-06-23T10:28:16.654Z,22.80
2018-06-23T10:30:46.076Z,22.70
2018-06-23T10:33:16.198Z,22.60
2018-06-23T10:35:45.997Z,22.50
2018-06-23T10:38:16.454Z,22.50
2018-06-23T10:40:46.007Z,22.40
2018-06-23T10:43:16.192Z,22.40
2018-06-23T10:45:45.824Z,22.50
2018-06-23T10:48:16.216Z,22.50
2018-06-23T10:50:45.903Z,22.60
2018-06-23T10:53:16.153Z,22.50
2018-06-23T11:01:38.682Z,22.60
2018-06-23T11:04:08.164Z,22.60
2018-06-23T11:06:37.608Z,22.50
2018-06-23T11:09:08.847Z,22.50
2018-06-23T11:11:38.594Z,22.50
2018-06-23T11:14:08.187Z,22.60
2018-06-23T11:16:37.800Z,22.70
2018-06-23T11:19:07.448Z,22.70
2018-06-23T11:21:37.059Z,22.80
2018-06-23T11:26:35.686Z,22.90
2018-06-23T11:29:05.423Z,23.00
2018-06-23T11:31:35.023Z,23.00
2018-06-23T11:44:32.827Z,23.10
2018-06-23T11:47:02.376Z,23.10
2018-06-23T11:49:32.005Z,22.80
2018-06-23T11:52:01.625Z,22.80
2018-06-23T11:54:31.224Z,22.70
2018-06-23T11:57:00.740Z,22.70
2018-06-23T11:59:30.370Z,22.80
2018-06-23T12:01:59.884Z,22.80
2018-06-23T12:06:59.508Z,23.00
2018-06-23T12:12:01.055Z,23.10
2018-06-23T12:14:30.534Z,23.10
2018-06-23T12:16:59.979Z,23.10
2018-06-23T12:19:29.551Z,23.10
2018-06-23T12:21:59.086Z,22.90
2018-06-23T12:24:28.747Z,22.90
2018-06-23T12:26:58.219Z,22.90
2018-06-23T12:29:27.605Z,23.00
2018-06-23T12:31:57.164Z,23.00
2018-06-23T12:34:26.654Z,23.00
2018-06-23T12:36:56.237Z,22.90
2018-06-23T12:39:25.926Z,22.90
2018-06-23T12:41:55.360Z,22.80
2018-06-23T12:44:24.818Z,22.70
2018-06-23T12:46:54.398Z,22.80
2018-06-23T12:49:23.874Z,22.90
2018-06-23T12:51:53.335Z,23.00
2018-06-23T12:54:23.002Z,23.00
2018-06-23T12:56:52.736Z,22.90
2018-06-23T12:59:22.223Z,22.90
2018-06-23T13:04:20.716Z,23.00
2018-06-23T13:06:50.306Z,23.10
2018-06-23T13:09:19.825Z,23.20
2018-06-23T13:11:49.493Z,23.30
2018-06-23T13:14:19.109Z,23.40
2018-06-23T13:16:48.790Z,23.40
2018-06-23T13:19:18.403Z,23.50
2018-06-23T13:21:48.052Z,23.50
2018-06-23T13:24:17.588Z,23.50
2018-06-23T13:26:47.241Z,23.40
2018-06-23T13:29:17.518Z,23.40
2018-06-23T13:42:52.334Z,23.50
2018-06-23T13:45:21.834Z,23.50
2018-06-23T13:47:51.307Z,23.40
2018-06-23T13:50:20.920Z,23.40
2018-06-23T13:52:50.571Z,23.50
2018-06-23T13:55:20.035Z,23.60
2018-06-23T13:57:49.646Z,23.60
2018-06-23T14:00:19.279Z,23.70
2018-06-23T14:02:48.761Z,23.80
2018-06-23T14:09:34.874Z,23.90
2018-06-23T14:12:04.584Z,23.90
2018-06-23T14:14:34.291Z,23.90
2018-06-23T14:17:03.791Z,23.90
2018-06-23T14:19:33.296Z,23.80
2018-06-23T14:22:02.870Z,23.70
2018-06-23T14:27:01.515Z,23.60
2018-06-23T14:29:30.939Z,23.60
2018-06-23T14:32:00.684Z,23.60
2018-06-23T14:34:29.973Z,23.60
2018-06-23T14:36:59.496Z,23.50
2018-06-23T14:39:29.179Z,23.50
2018-06-23T14:41:58.628Z,23.40
2018-06-23T14:44:28.258Z,23.40
2018-06-23T14:46:58.766Z,23.30
2018-06-23T14:49:28.393Z,23.20
2018-06-23T14:51:58.037Z,23.10
2018-06-23T14:54:27.685Z,23.10
2018-06-23T14:56:57.143Z,23.00
2018-06-23T14:59:26.706Z,23.00
2018-06-23T15:01:56.379Z,22.90
2018-06-23T15:04:25.838Z,22.90
2018-06-23T15:06:55.357Z,22.80
2018-06-23T15:09:36.049Z,22.80
2018-06-23T15:12:16.781Z,22.90
2018-06-23T15:14:46.319Z,23.00
2018-06-23T15:17:16.799Z,23.10
2018-06-23T15:19:46.548Z,23.20
2018-06-23T15:24:45.970Z,23.30
2018-06-23T15:27:15.419Z,23.40
2018-06-23T15:29:44.879Z,23.40
2018-06-23T15:32:17.042Z,23.50
2018-06-23T15:34:46.594Z,23.50
2018-06-23T15:37:17.022Z,23.50
2018-06-23T15:39:46.628Z,23.50
2018-06-23T15:42:17.012Z,23.40
2018-06-23T15:44:46.594Z,23.40
2018-06-23T15:47:16.972Z,23.40
2018-06-23T15:49:47.508Z,23.50
2018-06-23T15:52:17.110Z,23.40
2018-06-23T15:54:46.680Z,23.30
2018-06-23T15:57:17.370Z,23.30
2018-06-23T15:59:46.852Z,23.30
2018-06-23T16:02:17.115Z,23.30
2018-06-23T16:04:46.676Z,23.30
2018-06-23T16:07:16.978Z,23.30
2018-06-23T16:09:46.600Z,23.20
2018-06-23T16:12:17.047Z,23.20
2018-06-23T16:14:46.736Z,23.10
2018-06-23T16:19:46.341Z,23.10
2018-06-23T16:22:16.868Z,23.00
2018-06-23T16:24:46.571Z,23.10
2018-06-23T16:29:45.978Z,23.00
2018-06-23T16:32:15.439Z,23.00
2018-06-23T16:34:45.127Z,23.00
2018-06-23T16:37:14.347Z,22.90
2018-06-23T16:39:43.876Z,22.90
2018-06-23T16:42:13.427Z,22.90
2018-06-23T16:44:43.024Z,22.90
2018-06-23T17:01:45.141Z,22.80
2018-06-23T17:04:17.014Z,22.80
2018-06-23T17:06:46.634Z,22.80
2018-06-23T17:09:17.570Z,22.90
2018-06-23T17:11:47.140Z,22.80
2018-06-23T17:14:17.083Z,22.90
2018-06-23T17:16:46.743Z,22.90
2018-06-23T17:19:17.206Z,22.90
2018-06-23T17:21:46.820Z,22.90
2018-06-23T17:24:17.858Z,23.00
2018-06-23T17:26:47.278Z,22.90
2018-06-23T17:29:17.259Z,23.00
2018-06-23T17:31:46.694Z,22.90
2018-06-23T17:34:17.138Z,22.90
2018-06-23T17:36:46.596Z,22.90
2018-06-23T17:39:16.061Z,22.80
2018-06-23T17:41:45.660Z,22.80
2018-06-23T17:46:58.643Z,22.80
2018-06-23T17:49:28.220Z,22.80
2018-06-23T17:51:57.662Z,22.80
2018-06-23T17:54:27.146Z,22.70
2018-06-23T17:56:56.764Z,22.70
2018-06-23T17:59:26.255Z,22.70
2018-06-23T18:01:55.576Z,22.70
2018-06-23T18:04:24.952Z,22.70
2018-06-23T18:06:54.416Z,22.70
2018-06-23T18:09:23.905Z,22.70
2018-06-23T18:11:53.338Z,22.60
2018-06-23T18:16:52.882Z,22.60
2018-06-23T18:19:22.363Z,22.60
2018-06-23T18:21:51.779Z,22.50
2018-06-23T18:24:21.346Z,22.40
2018-06-23T18:26:50.826Z,22.40
2018-06-23T18:29:21.232Z,22.30
2018-06-23T18:31:50.607Z,22.30
2018-06-23T18:34:24.218Z,22.20
2018-06-23T18:36:53.723Z,22.20
2018-06-23T18:39:23.160Z,22.20
2018-06-23T18:44:21.864Z,22.10
2018-06-23T18:46:51.366Z,22.00
2018-06-23T18:49:20.812Z,21.90
2018-06-23T18:51:50.386Z,21.90
2018-06-23T18:54:19.957Z,21.80
2018-06-23T18:56:49.443Z,21.70
2018-06-23T18:59:18.863Z,21.70
2018-06-23T19:01:48.271Z,21.60
2018-06-23T19:04:17.672Z,21.50
2018-06-23T19:06:47.575Z,21.40
2018-06-23T19:09:17.691Z,21.40
2018-06-23T19:11:47.515Z,21.20
2018-06-23T19:14:17.428Z,21.10
2018-06-23T19:19:15.946Z,21.00
2018-06-23T19:21:45.396Z,20.90
2018-06-23T19:24:14.871Z,20.80
2018-06-23T19:26:44.389Z,20.80
2018-06-23T19:29:13.947Z,20.70
2018-06-23T19:31:43.532Z,20.60
2018-06-23T19:34:13.059Z,20.60
2018-06-23T19:36:42.647Z,20.50
2018-06-23T19:39:12.220Z,20.40
2018-06-23T19:41:41.797Z,20.30
2018-06-23T19:44:11.398Z,20.20
2018-06-23T19:46:41.111Z,20.10
2018-06-23T19:49:10.686Z,20.00
2018-06-23T19:51:40.174Z,19.90
2018-06-23T19:54:09.716Z,19.80
2018-06-23T19:56:39.093Z,19.70
2018-06-23T20:02:40.062Z,19.40
2018-06-23T20:06:46.517Z,19.30
2018-06-23T20:09:15.939Z,19.10
2018-06-23T20:11:45.372Z,18.90
2018-06-23T20:14:14.862Z,18.80
2018-06-23T20:16:44.360Z,18.60
2018-06-23T20:19:13.895Z,18.50
2018-06-23T20:21:43.464Z,18.40
2018-06-23T20:24:13.016Z,18.30
2018-06-23T20:26:42.588Z,18.20
2018-06-23T20:29:12.104Z,18.10
2018-06-23T20:31:41.494Z,18.00
2018-06-23T20:34:10.978Z,17.90
2018-06-23T20:36:40.537Z,17.80
2018-06-23T20:39:11.969Z,17.70
2018-06-23T20:41:42.256Z,17.70
2018-06-23T20:44:11.868Z,17.50
2018-06-23T20:46:41.432Z,17.40
2018-06-23T20:49:10.823Z,17.40
2018-06-23T20:51:40.319Z,17.30
2018-06-23T20:54:09.892Z,17.10
2018-06-23T20:56:39.312Z,17.00
2018-06-23T20:59:08.856Z,16.90
2018-06-23T21:01:38.265Z,16.80
2018-06-23T21:04:07.964Z,16.70
2018-06-23T21:06:37.527Z,16.60
2018-06-23T21:09:08.542Z,16.60
2018-06-23T21:16:37.332Z,16.20
2018-06-23T21:19:06.768Z,16.20
2018-06-23T21:21:36.309Z,16.00
2018-06-23T21:24:05.908Z,16.00
2018-06-23T21:26:35.352Z,15.90
2018-06-23T21:29:04.868Z,15.80
2018-06-23T21:31:34.400Z,15.70
2018-06-23T21:34:03.978Z,15.60
2018-06-23T21:39:02.515Z,15.40
2018-06-23T21:41:32.028Z,15.30
2018-06-23T21:44:01.599Z,15.20
2018-06-23T21:46:31.214Z,15.10
2018-06-23T21:49:00.824Z,15.00
2018-06-23T21:51:30.306Z,14.90
2018-06-23T21:53:59.948Z,14.90
2018-06-23T21:56:29.466Z,14.80
2018-06-23T21:58:59.022Z,14.70
2018-06-23T22:01:28.462Z,14.60
2018-06-23T22:03:57.942Z,14.50
2018-06-23T22:06:27.456Z,14.50
2018-06-23T22:08:57.027Z,14.50
2018-06-23T22:11:26.631Z,14.40
2018-06-23T22:13:56.187Z,14.30
2018-06-23T22:16:25.912Z,14.10
2018-06-23T22:18:55.415Z,14.10
2018-06-23T22:23:54.348Z,13.80
2018-06-23T22:26:23.937Z,13.80
2018-06-23T22:28:53.449Z,13.80
2018-06-23T22:37:36.111Z,13.70
2018-06-23T22:40:05.834Z,13.60
2018-06-23T22:42:35.466Z,13.50
2018-06-23T22:45:06.076Z,13.40
2018-06-23T22:47:35.637Z,13.40
2018-06-23T22:50:06.950Z,13.40
2018-06-23T22:55:05.834Z,13.30
2018-06-23T22:57:35.381Z,13.20
2018-06-23T23:00:11.415Z,13.20
2018-06-23T23:05:10.422Z,13.10
2018-06-23T23:07:40.546Z,13.00
2018-06-23T23:10:16.560Z,12.90
2018-06-23T23:12:46.131Z,12.80
2018-06-23T23:17:44.645Z,12.70
2018-06-23T23:20:14.371Z,12.60
2018-06-23T23:22:43.959Z,12.60
2018-06-23T23:25:13.474Z,12.60
2018-06-23T23:31:21.164Z,12.50
2018-06-23T23:33:50.724Z,12.40
2018-06-23T23:36:20.352Z,12.30
2018-06-23T23:38:49.937Z,12.30
2018-06-23T23:41:19.545Z,12.30
2018-06-23T23:43:49.176Z,12.20
2018-06-23T23:46:18.776Z,12.30
2018-06-23T23:48:48.397Z,12.20
2018-06-23T23:51:18.353Z,12.20
2018-06-23T23:53:48.487Z,12.10
2018-06-23T23:56:18.333Z,12.00
2018-06-23T23:58:47.863Z,12.00
